Impacts TAF Board INFO
FOR SITUATIONAL AWARENESS. NOT TO BE USED FOR FLIGHT PLANNING PURPOSES.
IDs:

KIAH - Houston/Bush Intl, TX, US

Issued at 1743 UTC 21 Jun 2018
Updated at 1950 UTC 21 Jun 2018
Potential Impact None Slight Moderate High
Time1853Z 21/20Z 21/21Z 21/22Z 21/23Z 22/00Z 22/01Z 22/02Z 22/03Z 22/04Z 22/05Z 22/06Z 22/07Z 22/08Z>>
Type OBS PRVL PRVL PRVL PRVL PRVL PRVL PRVL PRVL PRVL PRVL PRVL PRVL PRVL
VIS 10 >6 >6 >6 >6 >6 >6 >6 >6 >6 >6 >6 >6 >6
CIG 15 140 250 250 250 250 250 250 -- -- -- -- -- --
Cover OVC OVC BKN BKN BKN BKN BKN BKN SCT SCT SCT SCT SCT SCT
FltCat MVFR VFR VFR VFR VFR VFR VFR VFR VFR VFR VFR VFR VFR VFR
WX -- VCSH -- -- -- -- -- -- -- -- -- -- -- --
WDir 160 160 140 140 140 140 140 140 180 180 180 180 180 180
WSpd 5 5 6 6 6 6 6 6 4 4 4 4 4 4
WGst -- -- -- -- -- -- -- -- -- -- -- -- -- --

Raw TAF
KIAH 211743Z 2118/2224 16005KT P6SM VCSH SCT025 BKN140 OVC250
  TEMPO 2118/2120 TSRA BKN025CB
  FM212100 14006KT P6SM SCT040 BKN250
  FM220300 18004KT P6SM FEW045 SCT250
  FM221000 19002KT P6SM SCT012
  TEMPO 2210/2214 5SM BR BKN010
  FM221400 21005KT P6SM SCT020 BKN035
  FM221700 22006KT P6SM SCT035 SCT250


Raw METAR
KIAH 211853Z 16005KT 10SM BKN015 BKN140 OVC250 29/26 A2992 RMK AO2 SLP129 T02890261
KIAH 211753Z 17007KT 10SM BKN016 BKN140 OVC250 29/26 A2994 RMK AO2 LTG DSNT E AND SE SLP138 CB DSNT NE-E T02890261 10289 20250 51004
KIAH 211653Z 17004KT 7SM BKN018TCU BKN140 OVC250 28/26 A2994 RMK AO2 SLP138 TCU SE AND NW T02830261

METAR Board
Radar Display
Forecast Discussion

FOR SITUATIONAL AWARENESS. NOT TO BE USED FOR FLIGHT PLANNING PURPOSES.